La Consulta, Argentina
Current Conditions -  °F | °C
As of 9:00 AM on Saturday 20 Dec 2014 (Local Time) from SAME Reporting Station
Broken Clouds Broken Clouds  
Wind Chill: 68°   Ceiling: 4500
Heat Index: 68°   Visibility: 6mi
Dew Point: 41°   Wind: 10mph
Humidity: 37%   Direction: 140°SE
Pressure: 29.8"   Gusts: NA
Location:  33.73°S, 69.12°W
Report Text: SAME 201200Z 14009KT 9999 BKN045 20/05 Q1009
Loading
Personal Weather Stations






























Interactive Weather Map New forecast layout! Learn more

10-Day Weather Forecast

Advertisements
Track Severe Weather on mobile